Forlì Airport LIPK

Flugplatz Daten

Name: Forlì Airport

Ident: LIPK

Lat: 44,19480133

Long: 12,07009983

Platzhöhe: 97 ft

IataCode: FRL

City: Forlì

Metar

2021/12/03 20:50
LIPK 032050Z VRB01KT CAVOK 02/M02 Q1015

Taf

2021/12/03 18:21
TAF LIPK 032113Z 0318/0418 CNL
Gewünschte Webcam nicht vorhanden? Dann fügen Sie eine hinzu. Sie wird dann so schnell wie möglich freigeschaltet
Url: Title: